sensor_id;sensor_type;location;lat;lon;timestamp;pressure;altitude;pressure_sealevel;temperature;humidity
7170;BME280;3626;42.656;23.312;2023-02-16T00:00:06;95781.84;;;-2.12;100.00
7170;BME280;3626;42.656;23.312;2023-02-16T00:00:15;95782.69;;;-2.13;100.00
7170;BME280;3626;42.656;23.312;2023-02-16T00:00:25;95781.00;;;-2.12;100.00
7170;BME280;3626;42.656;23.312;2023-02-16T00:00:31;95782.69;;;-2.13;100.00
7170;BME280;3626;42.656;23.312;2023-02-16T00:00:37;95785.22;;;-2.13;100.00
7170;BME280;3626;42.656;23.312;2023-02-16T00:00:44;95783.53;;;-2.12;100.00
7170;BME280;3626;42.656;23.312;2023-02-16T00:00:50;95781.00;;;-2.12;100.00
7170;BME280;3626;42.656;23.312;2023-02-16T00:00:56;95786.88;;;-2.12;100.00
7170;BME280;3626;42.656;23.312;2023-02-16T00:01:14;95777.63;;;-2.13;100.00
7170;BME280;3626;42.656;23.312;2023-02-16T00:01:23;95787.72;;;-2.11;100.00
7170;BME280;3626;42.656;23.312;2023-02-16T00:01:33;95786.00;;;-2.11;100.00
7170;BME280;3626;42.656;23.312;2023-02-16T00:01:39;95779.31;;;-2.12;100.00
7170;BME280;3626;42.656;23.312;2023-02-16T00:01:45;95783.53;;;-2.12;100.00
7170;BME280;3626;42.656;23.312;2023-02-16T00:01:51;95784.38;;;-2.12;100.00
7170;BME280;3626;42.656;23.312;2023-02-16T00:01:59;95775.06;;;-2.11;100.00
7170;BME280;3626;42.656;23.312;2023-02-16T00:02:05;95781.75;;;-2.10;100.00
7170;BME280;3626;42.656;23.312;2023-02-16T00:02:10;95787.63;;;-2.10;100.00
7170;BME280;3626;42.656;23.312;2023-02-16T00:02:16;95785.88;;;-2.08;100.00
7170;BME280;3626;42.656;23.312;2023-02-16T00:02:22;95781.66;;;-2.07;100.00
7170;BME280;3626;42.656;23.312;2023-02-16T00:02:27;95783.28;;;-2.06;100.00
7170;BME280;3626;42.656;23.312;2023-02-16T00:02:36;95783.22;;;-2.05;100.00
7170;BME280;3626;42.656;23.312;2023-02-16T00:02:43;95782.34;;;-2.04;100.00
7170;BME280;3626;42.656;23.312;2023-02-16T00:02:50;95783.16;;;-2.03;100.00
7170;BME280;3626;42.656;23.312;2023-02-16T00:02:56;95786.44;;;-2.01;100.00
7170;BME280;3626;42.656;23.312;2023-02-16T00:03:03;95783.03;;;-2.00;100.00
7170;BME280;3626;42.656;23.312;2023-02-16T00:03:10;95792.28;;;-1.99;100.00
7170;BME280;3626;42.656;23.312;2023-02-16T00:03:18;95786.34;;;-1.98;100.00
7170;BME280;3626;42.656;23.312;2023-02-16T00:03:25;95786.25;;;-1.96;100.00
7170;BME280;3626;42.656;23.312;2023-02-16T00:03:31;95787.06;;;-1.96;100.00
7170;BME280;3626;42.656;23.312;2023-02-16T00:03:36;95790.44;;;-1.95;100.00
7170;BME280;3626;42.656;23.312;2023-02-16T00:03:42;95780.31;;;-1.95;100.00
7170;BME280;3626;42.656;23.312;2023-02-16T00:03:49;95786.25;;;-1.96;100.00
7170;BME280;3626;42.656;23.312;2023-02-16T00:03:55;95788.78;;;-1.96;100.00
7170;BME280;3626;42.656;23.312;2023-02-16T00:04:12;95790.44;;;-1.95;100.00
7170;BME280;3626;42.656;23.312;2023-02-16T00:04:22;95784.50;;;-1.94;100.00
7170;BME280;3626;42.656;23.312;2023-02-16T00:04:29;95788.75;;;-1.95;100.00
7170;BME280;3626;42.656;23.312;2023-02-16T00:04:36;95784.50;;;-1.94;100.00
7170;BME280;3626;42.656;23.312;2023-02-16T00:04:41;95784.44;;;-1.93;100.00
7170;BME280;3626;42.656;23.312;2023-02-16T00:04:47;95787.78;;;-1.92;100.00
7170;BME280;3626;42.656;23.312;2023-02-16T00:04:53;95791.94;;;-1.91;100.00
7170;BME280;3626;42.656;23.312;2023-02-16T00:04:59;95785.25;;;-1.92;100.00
7170;BME280;3626;42.656;23.312;2023-02-16T00:05:16;95791.09;;;-1.90;100.00
7170;BME280;3626;42.656;23.312;2023-02-16T00:05:28;95788.56;;;-1.90;100.00
7170;BME280;3626;42.656;23.312;2023-02-16T00:05:34;95788.47;;;-1.89;100.00
7170;BME280;3626;42.656;23.312;2023-02-16T00:05:40;95784.25;;;-1.88;100.00
7170;BME280;3626;42.656;23.312;2023-02-16T00:05:46;95792.66;;;-1.88;100.00
7170;BME280;3626;42.656;23.312;2023-02-16T00:05:51;95785.88;;;-1.87;100.00
7170;BME280;3626;42.656;23.312;2023-02-16T00:05:58;95787.59;;;-1.88;100.00
7170;BME280;3626;42.656;23.312;2023-02-16T00:06:04;95786.72;;;-1.87;100.00
7170;BME280;3626;42.656;23.312;2023-02-16T00:06:10;95785.88;;;-1.87;100.00
7170;BME280;3626;42.656;23.312;2023-02-16T00:06:20;95786.78;;;-1.88;100.00
7170;BME280;3626;42.656;23.312;2023-02-16T00:06:27;95790.94;;;-1.87;100.00
7170;BME280;3626;42.656;23.312;2023-02-16T00:06:33;95790.94;;;-1.87;100.00
7170;BME280;3626;42.656;23.312;2023-02-16T00:06:39;95790.94;;;-1.87;100.00
7170;BME280;3626;42.656;23.312;2023-02-16T00:06:45;95786.78;;;-1.88;100.00
7170;BME280;3626;42.656;23.312;2023-02-16T00:06:52;95792.66;;;-1.88;100.00
7170;BME280;3626;42.656;23.312;2023-02-16T00:06:58;95788.47;;;-1.89;100.00
7170;BME280;3626;42.656;23.312;2023-02-16T00:07:04;95793.47;;;-1.87;100.00
7170;BME280;3626;42.656;23.312;2023-02-16T00:07:11;95787.59;;;-1.88;100.00
7170;BME280;3626;42.656;23.312;2023-02-16T00:07:16;95785.06;;;-1.88;100.00
7170;BME280;3626;42.656;23.312;2023-02-16T00:07:22;95790.09;;;-1.86;100.00
7170;BME280;3626;42.656;23.312;2023-02-16T00:07:28;95796.06;;;-1.89;100.00
7170;BME280;3626;42.656;23.312;2023-02-16T00:07:34;95794.44;;;-1.90;100.00
7170;BME280;3626;42.656;23.312;2023-02-16T00:07:39;95791.09;;;-1.90;100.00
7170;BME280;3626;42.656;23.312;2023-02-16T00:07:45;95792.78;;;-1.91;100.00
7170;BME280;3626;42.656;23.312;2023-02-16T00:07:51;95791.00;;;-1.89;100.00
7170;BME280;3626;42.656;23.312;2023-02-16T00:07:58;95786.84;;;-1.90;100.00
7170;BME280;3626;42.656;23.312;2023-02-16T00:08:04;95797.72;;;-1.88;100.00
7170;BME280;3626;42.656;23.312;2023-02-16T00:08:10;95785.13;;;-1.89;100.00
7170;BME280;3626;42.656;23.312;2023-02-16T00:08:15;95786.78;;;-1.88;100.00
7170;BME280;3626;42.656;23.312;2023-02-16T00:08:21;95788.41;;;-1.87;100.00
7170;BME280;3626;42.656;23.312;2023-02-16T00:08:28;95790.13;;;-1.88;100.00
7170;BME280;3626;42.656;23.312;2023-02-16T00:08:33;95784.25;;;-1.88;100.00
7170;BME280;3626;42.656;23.312;2023-02-16T00:08:39;95788.41;;;-1.87;100.00
7170;BME280;3626;42.656;23.312;2023-02-16T00:08:47;95791.78;;;-1.87;100.00
7170;BME280;3626;42.656;23.312;2023-02-16T00:08:56;95790.94;;;-1.87;100.00
7170;BME280;3626;42.656;23.312;2023-02-16T00:09:02;95789.25;;;-1.87;100.00
7170;BME280;3626;42.656;23.312;2023-02-16T00:09:07;95788.41;;;-1.87;100.00
7170;BME280;3626;42.656;23.312;2023-02-16T00:09:13;95789.25;;;-1.87;100.00
7170;BME280;3626;42.656;23.312;2023-02-16T00:09:20;95789.25;;;-1.87;100.00
7170;BME280;3626;42.656;23.312;2023-02-16T00:09:26;95795.13;;;-1.86;100.00
7170;BME280;3626;42.656;23.312;2023-02-16T00:09:32;95787.59;;;-1.88;100.00
7170;BME280;3626;42.656;23.312;2023-02-16T00:09:38;95788.41;;;-1.87;100.00
7170;BME280;3626;42.656;23.312;2023-02-16T00:09:43;95788.41;;;-1.87;100.00
7170;BME280;3626;42.656;23.312;2023-02-16T00:09:49;95791.72;;;-1.85;100.00
7170;BME280;3626;42.656;23.312;2023-02-16T00:09:55;95786.66;;;-1.85;100.00
7170;BME280;3626;42.656;23.312;2023-02-16T00:10:01;95785.03;;;-1.86;100.00
7170;BME280;3626;42.656;23.312;2023-02-16T00:10:11;95790.94;;;-1.87;100.00
7170;BME280;3626;42.656;23.312;2023-02-16T00:10:17;95788.47;;;-1.89;100.00
7170;BME280;3626;42.656;23.312;2023-02-16T00:10:24;95790.13;;;-1.88;100.00
7170;BME280;3626;42.656;23.312;2023-02-16T00:10:32;95793.47;;;-1.87;100.00
7170;BME280;3626;42.656;23.312;2023-02-16T00:10:39;95794.38;;;-1.88;100.00
7170;BME280;3626;42.656;23.312;2023-02-16T00:10:45;95788.41;;;-1.87;100.00
7170;BME280;3626;42.656;23.312;2023-02-16T00:11:17;95790.28;;;-1.91;100.00
7170;BME280;3626;42.656;23.312;2023-02-16T00:11:43;95788.59;;;-1.92;100.00
7170;BME280;3626;42.656;23.312;2023-02-16T00:12:17;95787.84;;;-1.94;100.00
7170;BME280;3626;42.656;23.312;2023-02-16T00:12:41;95796.19;;;-1.92;100.00
7170;BME280;3626;42.656;23.312;2023-02-16T00:13:20;95786.88;;;-1.91;100.00
7170;BME280;3626;42.656;23.312;2023-02-16T00:13:47;95790.38;;;-1.94;100.00
7170;BME280;3626;42.656;23.312;2023-02-16T00:13:53;95794.56;;;-1.93;100.00
7170;BME280;3626;42.656;23.312;2023-02-16T00:13:59;95790.44;;;-1.95;100.00
7170;BME280;3626;42.656;23.312;2023-02-16T00:14:08;95789.59;;;-1.96;100.00
7170;BME280;3626;42.656;23.312;2023-02-16T00:14:15;95794.00;;;-1.99;100.00
7170;BME280;3626;42.656;23.312;2023-02-16T00:14:22;95790.69;;;-2.02;100.00
7170;BME280;3626;42.656;23.312;2023-02-16T00:14:32;95789.88;;;-2.02;100.00
7170;BME280;3626;42.656;23.312;2023-02-16T00:14:39;95788.16;;;-2.02;100.00
7170;BME280;3626;42.656;23.312;2023-02-16T00:14:45;95794.03;;;-2.01;100.00
7170;BME280;3626;42.656;23.312;2023-02-16T00:14:50;95789.78;;;-2.01;100.00
7170;BME280;3626;42.656;23.312;2023-02-16T00:14:57;95792.31;;;-2.01;100.00
7170;BME280;3626;42.656;23.312;2023-02-16T00:15:13;95789.88;;;-2.02;100.00
7170;BME280;3626;42.656;23.312;2023-02-16T00:15:21;95792.47;;;-2.04;100.00
7170;BME280;3626;42.656;23.312;2023-02-16T00:15:27;95787.44;;;-2.05;100.00
7170;BME280;3626;42.656;23.312;2023-02-16T00:15:33;95784.09;;;-2.06;100.00
7170;BME280;3626;42.656;23.312;2023-02-16T00:15:40;95788.28;;;-2.05;100.00
7170;BME280;3626;42.656;23.312;2023-02-16T00:15:46;95791.56;;;-2.03;100.00
7170;BME280;3626;42.656;23.312;2023-02-16T00:15:51;95794.09;;;-2.03;100.00
7170;BME280;3626;42.656;23.312;2023-02-16T00:15:57;95794.94;;;-2.02;100.00
7170;BME280;3626;42.656;23.312;2023-02-16T00:16:03;95789.78;;;-2.01;100.00
7170;BME280;3626;42.656;23.312;2023-02-16T00:16:13;95787.25;;;-2.01;100.00
7170;BME280;3626;42.656;23.312;2023-02-16T00:16:21;95789.03;;;-2.03;100.00
7170;BME280;3626;42.656;23.312;2023-02-16T00:16:28;95784.91;;;-2.05;100.00
7170;BME280;3626;42.656;23.312;2023-02-16T00:16:34;95784.09;;;-2.06;100.00
7170;BME280;3626;42.656;23.312;2023-02-16T00:16:42;95791.75;;;-2.07;100.00
7170;BME280;3626;42.656;23.312;2023-02-16T00:16:48;95785.88;;;-2.08;100.00
7170;BME280;3626;42.656;23.312;2023-02-16T00:16:55;95789.28;;;-2.09;100.00
7170;BME280;3626;42.656;23.312;2023-02-16T00:17:01;95790.09;;;-2.08;100.00
7170;BME280;3626;42.656;23.312;2023-02-16T00:17:09;95790.09;;;-2.08;100.00
7170;BME280;3626;42.656;23.312;2023-02-16T00:17:18;95790.97;;;-2.09;100.00
7170;BME280;3626;42.656;23.312;2023-02-16T00:17:24;95792.69;;;-2.10;100.00
7170;BME280;3626;42.656;23.312;2023-02-16T00:17:30;95788.53;;;-2.11;100.00
7170;BME280;3626;42.656;23.312;2023-02-16T00:17:35;95786.81;;;-2.10;100.00
7170;BME280;3626;42.656;23.312;2023-02-16T00:17:42;95787.63;;;-2.10;100.00
7170;BME280;3626;42.656;23.312;2023-02-16T00:17:47;95790.94;;;-2.08;100.00
7170;BME280;3626;42.656;23.312;2023-02-16T00:17:57;95789.22;;;-2.07;100.00
7170;BME280;3626;42.656;23.312;2023-02-16T00:18:13;95790.06;;;-2.07;100.00
7170;BME280;3626;42.656;23.312;2023-02-16T00:18:21;95785.75;;;-2.05;100.00
7170;BME280;3626;42.656;23.312;2023-02-16T00:18:26;95784.91;;;-2.05;100.00
7170;BME280;3626;42.656;23.312;2023-02-16T00:18:32;95789.94;;;-2.04;100.00
7170;BME280;3626;42.656;23.312;2023-02-16T00:18:38;95789.94;;;-2.04;100.00
7170;BME280;3626;42.656;23.312;2023-02-16T00:18:44;95791.56;;;-2.03;100.00
7170;BME280;3626;42.656;23.312;2023-02-16T00:18:51;95790.69;;;-2.02;100.00
7170;BME280;3626;42.656;23.312;2023-02-16T00:18:57;95790.63;;;-2.00;100.00
7170;BME280;3626;42.656;23.312;2023-02-16T00:19:15;95783.88;;;-1.99;100.00
7170;BME280;3626;42.656;23.312;2023-02-16T00:19:24;95785.50;;;-1.98;100.00
7170;BME280;3626;42.656;23.312;2023-02-16T00:19:33;95789.69;;;-1.97;100.00
7170;BME280;3626;42.656;23.312;2023-02-16T00:19:40;95782.91;;;-1.97;100.00
7170;BME280;3626;42.656;23.312;2023-02-16T00:19:46;95785.44;;;-1.97;100.00
7170;BME280;3626;42.656;23.312;2023-02-16T00:19:52;95782.91;;;-1.97;100.00
7170;BME280;3626;42.656;23.312;2023-02-16T00:19:58;95785.38;;;-1.95;100.00
7170;BME280;3626;42.656;23.312;2023-02-16T00:20:05;95779.63;;;-1.99;100.00
7170;BME280;3626;42.656;23.312;2023-02-16T00:20:15;95782.97;;;-1.98;100.00
7170;BME280;3626;42.656;23.312;2023-02-16T00:20:21;95779.56;;;-1.97;100.00
7170;BME280;3626;42.656;23.312;2023-02-16T00:20:27;95786.34;;;-1.98;100.00
7170;BME280;3626;42.656;23.312;2023-02-16T00:20:34;95786.41;;;-1.99;100.00
7170;BME280;3626;42.656;23.312;2023-02-16T00:20:40;95783.88;;;-1.99;100.00
7170;BME280;3626;42.656;23.312;2023-02-16T00:20:47;95781.34;;;-1.99;100.00
7170;BME280;3626;42.656;23.312;2023-02-16T00:20:53;95783.81;;;-1.98;100.00
7170;BME280;3626;42.656;23.312;2023-02-16T00:20:58;95785.50;;;-1.98;100.00
7170;BME280;3626;42.656;23.312;2023-02-16T00:21:04;95777.97;;;-2.00;100.00
7170;BME280;3626;42.656;23.312;2023-02-16T00:21:10;95785.63;;;-2.02;100.00
7170;BME280;3626;42.656;23.312;2023-02-16T00:21:16;95786.50;;;-2.03;100.00
7170;BME280;3626;42.656;23.312;2023-02-16T00:21:24;95784.03;;;-2.04;100.00
7170;BME280;3626;42.656;23.312;2023-02-16T00:21:30;95782.34;;;-2.04;100.00
7170;BME280;3626;42.656;23.312;2023-02-16T00:21:36;95785.75;;;-2.05;100.00
7170;BME280;3626;42.656;23.312;2023-02-16T00:21:42;95789.94;;;-2.04;100.00
7170;BME280;3626;42.656;23.312;2023-02-16T00:21:49;95788.22;;;-2.03;100.00
7170;BME280;3626;42.656;23.312;2023-02-16T00:21:57;95784.88;;;-2.04;100.00
7170;BME280;3626;42.656;23.312;2023-02-16T00:22:04;95783.16;;;-2.03;100.00
7170;BME280;3626;42.656;23.312;2023-02-16T00:22:10;95788.97;;;-2.01;100.00
7170;BME280;3626;42.656;23.312;2023-02-16T00:22:16;95780.56;;;-2.02;100.00
7170;BME280;3626;42.656;23.312;2023-02-16T00:22:22;95781.38;;;-2.01;100.00
7170;BME280;3626;42.656;23.312;2023-02-16T00:22:30;95787.25;;;-2.01;100.00
7170;BME280;3626;42.656;23.312;2023-02-16T00:22:36;95783.91;;;-2.01;100.00
7170;BME280;3626;42.656;23.312;2023-02-16T00:22:42;95784.72;;;-2.01;100.00
7170;BME280;3626;42.656;23.312;2023-02-16T00:22:47;95788.09;;;-2.00;100.00
7170;BME280;3626;42.656;23.312;2023-02-16T00:22:53;95787.34;;;-2.02;100.00
7170;BME280;3626;42.656;23.312;2023-02-16T00:22:59;95789.88;;;-2.02;100.00
7170;BME280;3626;42.656;23.312;2023-02-16T00:23:05;95782.34;;;-2.04;100.00
7170;BME280;3626;42.656;23.312;2023-02-16T00:23:10;95786.56;;;-2.04;100.00
7170;BME280;3626;42.656;23.312;2023-02-16T00:23:16;95783.22;;;-2.05;100.00
7170;BME280;3626;42.656;23.312;2023-02-16T00:23:22;95780.69;;;-2.05;100.00
7170;BME280;3626;42.656;23.312;2023-02-16T00:23:28;95779.81;;;-2.04;100.00
7170;BME280;3626;42.656;23.312;2023-02-16T00:23:33;95784.03;;;-2.04;100.00
7170;BME280;3626;42.656;23.312;2023-02-16T00:23:41;95786.56;;;-2.04;100.00
7170;BME280;3626;42.656;23.312;2023-02-16T00:23:47;95779.88;;;-2.05;100.00
7170;BME280;3626;42.656;23.312;2023-02-16T00:23:53;95787.44;;;-2.05;100.00
7170;BME280;3626;42.656;23.312;2023-02-16T00:23:59;95779.88;;;-2.05;100.00
7170;BME280;3626;42.656;23.312;2023-02-16T00:24:05;95791.69;;;-2.06;100.00
7170;BME280;3626;42.656;23.312;2023-02-16T00:24:11;95786.72;;;-2.07;100.00
7170;BME280;3626;42.656;23.312;2023-02-16T00:24:16;95786.72;;;-2.07;100.00
7170;BME280;3626;42.656;23.312;2023-02-16T00:24:23;95785.03;;;-2.08;100.00
7170;BME280;3626;42.656;23.312;2023-02-16T00:24:30;95787.53;;;-2.07;100.00
7170;BME280;3626;42.656;23.312;2023-02-16T00:24:36;95781.56;;;-2.06;100.00
7170;BME280;3626;42.656;23.312;2023-02-16T00:24:43;95779.88;;;-2.05;100.00
7170;BME280;3626;42.656;23.312;2023-02-16T00:24:49;95784.09;;;-2.06;100.00
7170;BME280;3626;42.656;23.312;2023-02-16T00:24:54;95781.50;;;-2.04;100.00
7170;BME280;3626;42.656;23.312;2023-02-16T00:25:00;95787.41;;;-2.04;100.00
7170;BME280;3626;42.656;23.312;2023-02-16T00:25:06;95786.50;;;-2.03;100.00
7170;BME280;3626;42.656;23.312;2023-02-16T00:25:12;95786.50;;;-2.03;100.00
7170;BME280;3626;42.656;23.312;2023-02-16T00:25:18;95782.28;;;-2.02;100.00
7170;BME280;3626;42.656;23.312;2023-02-16T00:25:24;95788.97;;;-2.01;100.00
7170;BME280;3626;42.656;23.312;2023-02-16T00:25:30;95786.50;;;-2.03;100.00
7170;BME280;3626;42.656;23.312;2023-02-16T00:25:36;95787.34;;;-2.02;100.00
7170;BME280;3626;42.656;23.312;2023-02-16T00:25:42;95786.50;;;-2.03;100.00
7170;BME280;3626;42.656;23.312;2023-02-16T00:25:47;95789.03;;;-2.03;100.00
7170;BME280;3626;42.656;23.312;2023-02-16T00:25:53;95784.03;;;-2.04;100.00
7170;BME280;3626;42.656;23.312;2023-02-16T00:25:59;95789.94;;;-2.04;100.00
7170;BME280;3626;42.656;23.312;2023-02-16T00:26:12;95789.88;;;-2.02;100.00
7170;BME280;3626;42.656;23.312;2023-02-16T00:26:21;95786.50;;;-2.03;100.00
7170;BME280;3626;42.656;23.312;2023-02-16T00:26:30;95784.81;;;-2.02;100.00
7170;BME280;3626;42.656;23.312;2023-02-16T00:26:39;95778.03;;;-2.02;100.00
7170;BME280;3626;42.656;23.312;2023-02-16T00:26:46;95786.44;;;-2.01;100.00
7170;BME280;3626;42.656;23.312;2023-02-16T00:26:53;95782.22;;;-2.01;100.00
7170;BME280;3626;42.656;23.312;2023-02-16T00:26:59;95781.47;;;-2.03;100.00
7170;BME280;3626;42.656;23.312;2023-02-16T00:27:11;95787.25;;;-2.01;100.00
7170;BME280;3626;42.656;23.312;2023-02-16T00:27:17;95782.22;;;-2.01;100.00
7170;BME280;3626;42.656;23.312;2023-02-16T00:27:23;95784.69;;;-1.99;100.00
7170;BME280;3626;42.656;23.312;2023-02-16T00:27:31;95782.97;;;-1.98;100.00
7170;BME280;3626;42.656;23.312;2023-02-16T00:27:37;95782.97;;;-1.98;100.00
7170;BME280;3626;42.656;23.312;2023-02-16T00:27:43;95787.97;;;-1.97;100.00
7170;BME280;3626;42.656;23.312;2023-02-16T00:27:49;95778.66;;;-1.96;100.00
7170;BME280;3626;42.656;23.312;2023-02-16T00:27:55;95777.84;;;-1.97;100.00
7170;BME280;3626;42.656;23.312;2023-02-16T00:28:03;95779.50;;;-1.96;100.00
7170;BME280;3626;42.656;23.312;2023-02-16T00:28:14;95778.66;;;-1.96;100.00
7170;BME280;3626;42.656;23.312;2023-02-16T00:28:20;95787.06;;;-1.96;100.00
7170;BME280;3626;42.656;23.312;2023-02-16T00:28:26;95780.38;;;-1.97;100.00
7170;BME280;3626;42.656;23.312;2023-02-16T00:28:32;95776.13;;;-1.96;100.00
7170;BME280;3626;42.656;23.312;2023-02-16T00:28:38;95778.66;;;-1.96;100.00
7170;BME280;3626;42.656;23.312;2023-02-16T00:28:44;95786.25;;;-1.96;100.00
7170;BME280;3626;42.656;23.312;2023-02-16T00:28:51;95780.31;;;-1.95;100.00
7170;BME280;3626;42.656;23.312;2023-02-16T00:28:58;95776.09;;;-1.95;100.00
7170;BME280;3626;42.656;23.312;2023-02-16T00:29:04;95780.25;;;-1.94;100.00
7170;BME280;3626;42.656;23.312;2023-02-16T00:29:13;95777.72;;;-1.94;100.00
7170;BME280;3626;42.656;23.312;2023-02-16T00:29:24;95785.38;;;-1.95;100.00
7170;BME280;3626;42.656;23.312;2023-02-16T00:29:31;95780.38;;;-1.97;100.00
7170;BME280;3626;42.656;23.312;2023-02-16T00:29:38;95778.66;;;-1.96;100.00
7170;BME280;3626;42.656;23.312;2023-02-16T00:29:44;95778.66;;;-1.96;100.00
7170;BME280;3626;42.656;23.312;2023-02-16T00:29:50;95787.91;;;-1.95;100.00
7170;BME280;3626;42.656;23.312;2023-02-16T00:29:55;95779.50;;;-1.96;100.00
7170;BME280;3626;42.656;23.312;2023-02-16T00:30:01;95778.56;;;-1.93;100.00
7170;BME280;3626;42.656;23.312;2023-02-16T00:30:20;95781.00;;;-1.92;100.00
7170;BME280;3626;42.656;23.312;2023-02-16T00:30:26;95778.44;;;-1.90;100.00
7170;BME280;3626;42.656;23.312;2023-02-16T00:30:32;95774.25;;;-1.91;100.00
7170;BME280;3626;42.656;23.312;2023-02-16T00:30:38;95783.50;;;-1.90;100.00
7170;BME280;3626;42.656;23.312;2023-02-16T00:30:44;95783.50;;;-1.90;100.00
7170;BME280;3626;42.656;23.312;2023-02-16T00:30:49;95780.97;;;-1.90;100.00
7170;BME280;3626;42.656;23.312;2023-02-16T00:30:56;95784.34;;;-1.91;100.00
7170;BME280;3626;42.656;23.312;2023-02-16T00:31:03;95781.00;;;-1.92;100.00
7170;BME280;3626;42.656;23.312;2023-02-16T00:31:15;95779.38;;;-1.93;100.00
7170;BME280;3626;42.656;23.312;2023-02-16T00:31:23;95785.31;;;-1.94;100.00
7170;BME280;3626;42.656;23.312;2023-02-16T00:31:31;95781.97;;;-1.94;100.00
7170;BME280;3626;42.656;23.312;2023-02-16T00:31:37;95779.50;;;-1.96;100.00
7170;BME280;3626;42.656;23.312;2023-02-16T00:31:43;95782.91;;;-1.97;100.00
7170;BME280;3626;42.656;23.312;2023-02-16T00:31:49;95781.19;;;-1.96;100.00
7170;BME280;3626;42.656;23.312;2023-02-16T00:31:56;95783.72;;;-1.96;100.00
7170;BME280;3626;42.656;23.312;2023-02-16T00:32:04;95782.00;;;-1.96;100.00
7170;BME280;3626;42.656;23.312;2023-02-16T00:32:11;95782.91;;;-1.97;100.00
7170;BME280;3626;42.656;23.312;2023-02-16T00:32:17;95773.59;;;-1.96;100.00
7170;BME280;3626;42.656;23.312;2023-02-16T00:32:23;95782.00;;;-1.96;100.00
7170;BME280;3626;42.656;23.312;2023-02-16T00:32:29;95784.53;;;-1.96;100.00
7170;BME280;3626;42.656;23.312;2023-02-16T00:32:34;95781.16;;;-1.95;100.00
7170;BME280;3626;42.656;23.312;2023-02-16T00:32:40;95780.31;;;-1.95;100.00
7170;BME280;3626;42.656;23.312;2023-02-16T00:32:46;95786.25;;;-1.96;100.00
7170;BME280;3626;42.656;23.312;2023-02-16T00:32:52;95777.03;;;-1.97;100.00
7170;BME280;3626;42.656;23.312;2023-02-16T00:32:59;95780.44;;;-1.98;100.00
7170;BME280;3626;42.656;23.312;2023-02-16T00:33:12;95782.22;;;-2.01;100.00
7170;BME280;3626;42.656;23.312;2023-02-16T00:33:20;95782.16;;;-1.99;100.00
7170;BME280;3626;42.656;23.312;2023-02-16T00:33:25;95783.88;;;-1.99;100.00
7170;BME280;3626;42.656;23.312;2023-02-16T00:33:32;95782.22;;;-2.01;100.00
7170;BME280;3626;42.656;23.312;2023-02-16T00:33:38;95783.88;;;-1.99;100.00
7170;BME280;3626;42.656;23.312;2023-02-16T00:33:44;95777.97;;;-2.00;100.00
7170;BME280;3626;42.656;23.312;2023-02-16T00:33:50;95778.81;;;-1.99;100.00
7170;BME280;3626;42.656;23.312;2023-02-16T00:33:56;95785.50;;;-1.98;100.00
7170;BME280;3626;42.656;23.312;2023-02-16T00:34:21;95777.84;;;-1.97;100.00
7170;BME280;3626;42.656;23.312;2023-02-16T00:34:34;95785.38;;;-1.95;100.00
7170;BME280;3626;42.656;23.312;2023-02-16T00:34:41;95782.00;;;-1.96;100.00
7170;BME280;3626;42.656;23.312;2023-02-16T00:34:47;95783.63;;;-1.93;100.00
7170;BME280;3626;42.656;23.312;2023-02-16T00:34:53;95785.38;;;-1.95;100.00
7170;BME280;3626;42.656;23.312;2023-02-16T00:34:59;95780.31;;;-1.95;100.00
7170;BME280;3626;42.656;23.312;2023-02-16T00:35:12;95781.28;;;-1.98;100.00
7170;BME280;3626;42.656;23.312;2023-02-16T00:35:20;95782.09;;;-1.97;100.00
7170;BME280;3626;42.656;23.312;2023-02-16T00:35:26;95782.09;;;-1.97;100.00
7170;BME280;3626;42.656;23.312;2023-02-16T00:35:32;95782.91;;;-1.97;100.00
7170;BME280;3626;42.656;23.312;2023-02-16T00:35:38;95782.09;;;-1.97;100.00
7170;BME280;3626;42.656;23.312;2023-02-16T00:35:44;95784.63;;;-1.97;100.00
7170;BME280;3626;42.656;23.312;2023-02-16T00:35:49;95781.28;;;-1.98;100.00
7170;BME280;3626;42.656;23.312;2023-02-16T00:35:55;95782.91;;;-1.97;100.00
7170;BME280;3626;42.656;23.312;2023-02-16T00:36:01;95784.63;;;-1.97;100.00
7170;BME280;3626;42.656;23.312;2023-02-16T00:36:08;95782.09;;;-1.97;100.00
7170;BME280;3626;42.656;23.312;2023-02-16T00:36:14;95784.63;;;-1.97;100.00
7170;BME280;3626;42.656;23.312;2023-02-16T00:36:20;95779.56;;;-1.97;100.00
7170;BME280;3626;42.656;23.312;2023-02-16T00:36:26;95782.09;;;-1.97;100.00
7170;BME280;3626;42.656;23.312;2023-02-16T00:36:31;95778.75;;;-1.98;100.00
7170;BME280;3626;42.656;23.312;2023-02-16T00:36:37;95780.38;;;-1.97;100.00
7170;BME280;3626;42.656;23.312;2023-02-16T00:36:45;95784.53;;;-1.96;100.00
7170;BME280;3626;42.656;23.312;2023-02-16T00:36:50;95781.19;;;-1.96;100.00
7170;BME280;3626;42.656;23.312;2023-02-16T00:36:57;95784.63;;;-1.97;100.00
7170;BME280;3626;42.656;23.312;2023-02-16T00:37:06;95782.97;;;-1.98;100.00
7170;BME280;3626;42.656;23.312;2023-02-16T00:37:12;95780.50;;;-2.00;100.00
7170;BME280;3626;42.656;23.312;2023-02-16T00:37:19;95780.44;;;-1.98;100.00
7170;BME280;3626;42.656;23.312;2023-02-16T00:37:25;95780.44;;;-1.98;100.00
7170;BME280;3626;42.656;23.312;2023-02-16T00:37:31;95782.16;;;-1.99;100.00
7170;BME280;3626;42.656;23.312;2023-02-16T00:37:37;95783.09;;;-2.02;100.00
7170;BME280;3626;42.656;23.312;2023-02-16T00:37:43;95781.47;;;-2.03;100.00
7170;BME280;3626;42.656;23.312;2023-02-16T00:37:49;95783.22;;;-2.05;100.00
7170;BME280;3626;42.656;23.312;2023-02-16T00:37:57;95783.22;;;-2.05;100.00
7170;BME280;3626;42.656;23.312;2023-02-16T00:38:02;95785.75;;;-2.05;100.00
7170;BME280;3626;42.656;23.312;2023-02-16T00:38:09;95784.91;;;-2.05;100.00
7170;BME280;3626;42.656;23.312;2023-02-16T00:38:15;95779.03;;;-2.06;100.00
7170;BME280;3626;42.656;23.312;2023-02-16T00:38:21;95786.72;;;-2.07;100.00
7170;BME280;3626;42.656;23.312;2023-02-16T00:38:26;95775.69;;;-2.06;100.00
7170;BME280;3626;42.656;23.312;2023-02-16T00:38:32;95785.00;;;-2.07;100.00
7170;BME280;3626;42.656;23.312;2023-02-16T00:38:38;95784.09;;;-2.06;100.00
7170;BME280;3626;42.656;23.312;2023-02-16T00:38:45;95779.88;;;-2.05;100.00
7170;BME280;3626;42.656;23.312;2023-02-16T00:38:53;95782.34;;;-2.04;100.00
7170;BME280;3626;42.656;23.312;2023-02-16T00:38:59;95783.16;;;-2.03;100.00
7170;BME280;3626;42.656;23.312;2023-02-16T00:39:04;95782.34;;;-2.04;100.00
7170;BME280;3626;42.656;23.312;2023-02-16T00:39:10;95784.00;;;-2.03;100.00